Time,TemperatureF,DewpointF,PressureIn,WindDirection,WindDirectionDegrees,WindSpeedMPH,WindSpeedGustMPH,Humidity,HourlyPrecipIn,Conditions,Clouds,dailyrainin,SolarRadiationWatts/m^2,SoftwareType,DateUTC
2013-11-25 00:01:00,39.0,31.8,30.40,WNW,295,0.0,3.0,75,0.00,,,0.01,0.0,meteohub,2013-11-25 05:01:00,
2013-11-25 00:02:00,39.0,31.5,30.40,WNW,295,0.0,3.0,74,0.00,,,0.01,0.0,meteohub,2013-11-25 05:02:00,
2013-11-25 00:07:00,38.8,31.6,30.39,WNW,295,0.0,3.0,75,0.00,,,0.00,0.0,meteohub,2013-11-25 05:07:00,
2013-11-25 00:12:00,38.8,32.0,30.39,NNW,335,1.0,1.0,76,0.00,,,0.00,0.0,meteohub,2013-11-25 05:12:00,
2013-11-25 00:17:00,38.8,32.0,30.39,NNW,335,0.0,2.0,76,0.00,,,0.00,0.0,meteohub,2013-11-25 05:17:00,
2013-11-25 00:22:00,38.7,31.8,30.39,West,275,0.0,3.0,76,0.00,,,0.00,0.0,meteohub,2013-11-25 05:22:00,
2013-11-25 00:27:00,38.7,31.8,30.39,West,276,0.0,3.0,76,0.00,,,0.00,0.0,meteohub,2013-11-25 05:27:00,
2013-11-25 00:32:00,38.7,31.8,30.39,WNW,296,0.0,3.0,76,0.00,,,0.00,0.0,meteohub,2013-11-25 05:32:00,
2013-11-25 00:37:00,38.7,31.8,30.39,WNW,296,1.0,3.0,76,0.00,,,0.00,0.0,meteohub,2013-11-25 05:37:00,
2013-11-25 00:42:00,38.7,31.8,30.39,NNE,21,0.0,3.0,76,0.00,,,0.00,0.0,meteohub,2013-11-25 05:42:00,
2013-11-25 00:47:00,38.8,32.0,30.39,NNW,333,0.0,3.0,76,0.00,,,0.00,0.0,meteohub,2013-11-25 05:47:00,
2013-11-25 00:52:00,38.8,32.0,30.39,NNW,333,0.0,3.0,76,0.00,,,0.00,0.0,meteohub,2013-11-25 05:52:00,
2013-11-25 00:57:00,38.8,32.0,30.39,WNW,300,0.0,3.0,76,0.00,,,0.00,0.0,meteohub,2013-11-25 05:57:00,
2013-11-25 01:02:00,38.8,32.0,30.38,WNW,299,0.0,1.0,76,0.00,,,0.00,0.0,meteohub,2013-11-25 06:02:00,
2013-11-25 01:07:00,38.7,31.8,30.38,WNW,300,0.0,1.0,76,0.00,,,0.00,0.0,meteohub,2013-11-25 06:07:00,
2013-11-25 01:12:00,38.7,31.8,30.38,WNW,300,0.0,1.0,76,0.00,,,0.00,0.0,meteohub,2013-11-25 06:12:00,
2013-11-25 01:17:00,38.5,31.8,30.38,WNW,300,0.0,1.0,77,0.00,,,0.00,0.0,meteohub,2013-11-25 06:17:00,
2013-11-25 01:22:00,38.5,31.8,30.38,WNW,300,0.0,1.0,77,0.00,,,0.00,0.0,meteohub,2013-11-25 06:22:00,
2013-11-25 01:27:00,38.5,31.8,30.38,WNW,303,0.0,1.0,77,0.00,,,0.00,0.0,meteohub,2013-11-25 06:27:00,
2013-11-25 01:32:00,38.5,31.8,30.38,NW,304,0.0,1.0,77,0.00,,,0.00,0.0,meteohub,2013-11-25 06:32:00,
2013-11-25 01:37:00,38.5,31.8,30.38,NW,304,0.0,3.0,77,0.00,,,0.00,0.0,meteohub,2013-11-25 06:37:00,
2013-11-25 01:42:00,38.5,31.8,30.38,WNW,303,0.0,3.0,77,0.00,,,0.00,0.0,meteohub,2013-11-25 06:42:00,
2013-11-25 01:47:00,38.3,31.6,30.38,NW,304,0.0,2.0,77,0.00,,,0.00,0.0,meteohub,2013-11-25 06:47:00,
2013-11-25 01:52:00,38.3,32.0,30.38,WNW,292,2.0,2.0,78,0.00,,,0.00,0.0,meteohub,2013-11-25 06:52:00,
2013-11-25 01:57:00,38.5,31.8,30.38,WNW,291,0.0,4.0,77,0.00,,,0.00,0.0,meteohub,2013-11-25 06:57:00,
2013-11-25 02:02:00,38.5,31.8,30.38,WNW,292,0.0,4.0,77,0.00,,,0.00,0.0,meteohub,2013-11-25 07:02:00,
2013-11-25 02:07:00,38.5,31.8,30.38,West,279,0.0,4.0,77,0.00,,,0.00,0.0,meteohub,2013-11-25 07:07:00,
2013-11-25 02:12:00,38.7,32.0,30.38,NE,45,0.0,3.0,77,0.00,,,0.00,0.0,meteohub,2013-11-25 07:12:00,
2013-11-25 02:17:00,38.7,32.4,30.38,WNW,294,0.0,4.0,78,0.00,,,0.00,0.0,meteohub,2013-11-25 07:17:00,
2013-11-25 02:22:00,38.7,32.0,30.37,WNW,286,0.0,6.0,77,0.00,,,0.00,0.0,meteohub,2013-11-25 07:22:00,
2013-11-25 02:27:00,38.5,31.8,30.37,WNW,294,0.0,6.0,77,0.00,,,0.00,0.0,meteohub,2013-11-25 07:27:00,
2013-11-25 02:32:00,38.5,32.2,30.37,WNW,296,0.0,6.0,78,0.00,,,0.00,0.0,meteohub,2013-11-25 07:32:00,
2013-11-25 02:37:00,38.5,32.2,30.37,NW,304,0.0,3.0,78,0.00,,,0.00,0.0,meteohub,2013-11-25 07:37:00,
2013-11-25 02:42:00,38.5,32.5,30.36,NW,304,0.0,3.0,79,0.00,,,0.00,0.0,meteohub,2013-11-25 07:42:00,
2013-11-25 02:47:00,38.5,32.5,30.36,WNW,303,0.0,3.0,79,0.00,,,0.00,0.0,meteohub,2013-11-25 07:47:00,
2013-11-25 02:52:00,38.3,32.4,30.36,NW,318,0.0,2.0,79,0.00,,,0.00,0.0,meteohub,2013-11-25 07:52:00,
2013-11-25 02:57:00,38.3,32.4,30.36,WNW,298,0.0,2.0,79,0.00,,,0.00,0.0,meteohub,2013-11-25 07:57:00,
2013-11-25 03:02:00,38.5,32.5,30.36,WNW,298,0.0,3.0,79,0.00,,,0.00,0.0,meteohub,2013-11-25 08:02:00,
2013-11-25 03:07:00,38.5,32.9,30.36,WNW,291,0.0,3.0,80,0.00,,,0.00,0.0,meteohub,2013-11-25 08:07:00,
2013-11-25 03:12:00,38.5,32.9,30.36,NNW,329,0.0,3.0,80,0.00,,,0.00,0.0,meteohub,2013-11-25 08:12:00,
2013-11-25 03:17:00,38.5,32.5,30.36,WNW,290,0.0,3.0,79,0.00,,,0.00,0.0,meteohub,2013-11-25 08:17:00,
2013-11-25 03:22:00,38.7,33.1,30.36,WNW,290,0.0,5.0,80,0.00,,,0.00,0.0,meteohub,2013-11-25 08:22:00,
2013-11-25 03:27:00,38.5,32.9,30.36,NW,322,1.0,5.0,80,0.00,,,0.00,0.0,meteohub,2013-11-25 08:27:00,
2013-11-25 03:32:00,38.5,32.9,30.36,NW,315,3.0,5.0,80,0.00,,,0.00,0.0,meteohub,2013-11-25 08:32:00,
2013-11-25 03:37:00,38.5,32.9,30.35,NW,309,0.0,6.0,80,0.00,,,0.00,0.0,meteohub,2013-11-25 08:37:00,
2013-11-25 03:42:00,38.7,33.1,30.36,WNW,290,0.0,6.0,80,0.00,,,0.00,0.0,meteohub,2013-11-25 08:42:00,
2013-11-25 03:47:00,38.7,33.1,30.36,WNW,290,0.0,6.0,80,0.00,,,0.00,0.0,meteohub,2013-11-25 08:47:00,
2013-11-25 03:52:00,38.7,33.1,30.36,West,278,0.0,3.0,80,0.00,,,0.00,0.0,meteohub,2013-11-25 08:52:00,
2013-11-25 03:57:00,38.7,33.1,30.36,West,280,0.0,6.0,80,0.00,,,0.00,0.0,meteohub,2013-11-25 08:57:00,
2013-11-25 04:03:00,38.7,33.1,30.36,NNW,341,0.0,6.0,80,0.00,,,0.00,0.0,meteohub,2013-11-25 09:03:00,
2013-11-25 04:08:00,38.7,32.7,30.36,WNW,292,0.0,6.0,79,0.00,,,0.00,0.0,meteohub,2013-11-25 09:08:00,
2013-11-25 04:13:00,38.7,32.7,30.37,WNW,290,2.0,5.0,79,0.00,,,0.00,0.0,meteohub,2013-11-25 09:13:00,
2013-11-25 04:18:00,38.7,33.1,30.36,NW,311,0.0,5.0,80,0.00,,,0.00,0.0,meteohub,2013-11-25 09:18:00,
2013-11-25 04:23:00,38.7,32.7,30.37,NW,309,0.0,4.0,79,0.00,,,0.00,0.0,meteohub,2013-11-25 09:23:00,
2013-11-25 04:28:00,38.7,32.7,30.36,WNW,286,0.0,5.0,79,0.00,,,0.00,0.0,meteohub,2013-11-25 09:28:00,
2013-11-25 04:33:00,38.8,32.9,30.36,NE,49,6.0,6.0,79,0.00,,,0.00,0.0,meteohub,2013-11-25 09:33:00,
2013-11-25 04:38:00,38.8,32.9,30.36,NW,321,0.0,8.0,79,0.00,,,0.00,0.0,meteohub,2013-11-25 09:38:00,
2013-11-25 04:43:00,38.7,32.7,30.36,WNW,297,0.0,8.0,79,0.00,,,0.00,0.0,meteohub,2013-11-25 09:43:00,
2013-11-25 04:48:00,38.7,32.7,30.36,NNW,345,0.0,8.0,79,0.00,,,0.00,0.0,meteohub,2013-11-25 09:48:00,
2013-11-25 04:53:00,38.7,32.7,30.36,NE,46,0.0,6.0,79,0.00,,,0.00,0.0,meteohub,2013-11-25 09:53:00,
2013-11-25 04:58:00,38.5,32.5,30.35,WNW,288,0.0,6.0,79,0.00,,,0.00,0.0,meteohub,2013-11-25 09:58:00,
2013-11-25 05:03:00,38.5,32.5,30.35,NW,310,0.0,5.0,79,0.00,,,0.00,0.0,meteohub,2013-11-25 10:03:00,
2013-11-25 05:08:00,38.5,32.5,30.35,NE,42,0.0,6.0,79,0.00,,,0.00,0.0,meteohub,2013-11-25 10:08:00,
2013-11-25 05:13:00,38.5,32.5,30.35,North,0,1.0,6.0,79,0.00,,,0.00,0.0,meteohub,2013-11-25 10:13:00,
2013-11-25 05:18:00,38.5,32.9,30.35,North,5,0.0,6.0,80,0.00,,,0.00,0.0,meteohub,2013-11-25 10:18:00,
2013-11-25 05:23:00,38.5,32.9,30.35,NNE,25,0.0,5.0,80,0.00,,,0.00,0.0,meteohub,2013-11-25 10:23:00,
2013-11-25 05:28:00,38.5,32.9,30.35,North,0,0.0,3.0,80,0.00,,,0.00,0.0,meteohub,2013-11-25 10:28:00,
2013-11-25 05:33:00,38.5,33.1,30.35,North,355,1.0,3.0,81,0.00,,,0.00,0.0,meteohub,2013-11-25 10:33:00,
2013-11-25 05:38:00,38.5,33.1,30.35,NW,313,0.0,5.0,81,0.00,,,0.00,0.0,meteohub,2013-11-25 10:38:00,
2013-11-25 05:43:00,38.7,33.6,30.35,NW,315,0.0,5.0,82,0.00,,,0.00,0.0,meteohub,2013-11-25 10:43:00,
2013-11-25 05:48:00,39.0,34.0,30.35,NNE,25,4.0,6.0,82,0.00,,,0.00,0.0,meteohub,2013-11-25 10:48:00,
2013-11-25 05:53:00,39.6,34.5,30.36,NNE,30,0.0,6.0,82,0.00,,,0.00,0.0,meteohub,2013-11-25 10:53:00,
2013-11-25 05:58:00,40.3,34.9,30.35,NE,34,6.0,11.0,81,0.00,,,0.00,0.0,meteohub,2013-11-25 10:58:00,
2013-11-25 06:03:00,40.8,35.4,30.35,NE,49,4.0,14.0,81,0.00,,,0.00,0.0,meteohub,2013-11-25 11:03:00,
2013-11-25 06:08:00,41.2,35.4,30.36,NE,43,5.0,14.0,80,0.00,,,0.00,0.0,meteohub,2013-11-25 11:08:00,
2013-11-25 06:13:00,41.2,35.4,30.36,NW,316,4.0,14.0,80,0.00,,,0.00,0.0,meteohub,2013-11-25 11:13:00,
2013-11-25 06:18:00,40.8,34.9,30.36,NNW,337,0.0,11.0,79,0.00,,,0.00,0.0,meteohub,2013-11-25 11:18:00,
2013-11-25 06:23:00,40.6,34.7,30.35,NE,45,0.0,9.0,79,0.00,,,0.00,0.0,meteohub,2013-11-25 11:23:00,
2013-11-25 06:28:00,40.3,34.3,30.35,NW,304,0.0,9.0,79,0.00,,,0.00,0.0,meteohub,2013-11-25 11:28:00,
2013-11-25 06:33:00,39.9,34.0,30.36,North,0,1.0,8.0,79,0.00,,,0.00,0.0,meteohub,2013-11-25 11:33:00,
2013-11-25 06:38:00,39.7,34.2,30.36,NE,56,3.0,8.0,80,0.00,,,0.00,0.0,meteohub,2013-11-25 11:38:00,
2013-11-25 06:43:00,39.6,33.6,30.36,NE,47,1.0,8.0,79,0.00,,,0.00,0.0,meteohub,2013-11-25 11:43:00,
2013-11-25 06:48:00,39.4,33.4,30.36,North,355,2.0,9.0,79,0.00,,,0.00,0.0,meteohub,2013-11-25 11:48:00,
2013-11-25 06:53:00,39.4,33.1,30.37,NE,46,3.0,9.0,78,0.00,,,0.00,0.0,meteohub,2013-11-25 11:53:00,
2013-11-25 06:58:00,39.0,33.1,30.37,NE,38,0.0,9.0,79,0.00,,,0.00,0.0,meteohub,2013-11-25 11:58:00,
2013-11-25 07:03:00,39.0,33.1,30.36,NE,38,0.0,8.0,79,0.00,,,0.00,0.0,meteohub,2013-11-25 12:03:00,
2013-11-25 07:08:00,38.8,32.9,30.36,NE,34,1.0,6.0,79,0.00,,,0.00,0.0,meteohub,2013-11-25 12:08:00,
2013-11-25 07:13:00,38.8,32.9,30.36,North,5,0.0,6.0,79,0.00,,,0.00,7.0,meteohub,2013-11-25 12:13:00,
2013-11-25 07:18:00,38.8,33.3,30.36,NW,307,0.0,8.0,80,0.00,,,0.00,11.0,meteohub,2013-11-25 12:18:00,
2013-11-25 07:23:00,38.7,33.1,30.36,NW,310,0.0,8.0,80,0.00,,,0.00,14.0,meteohub,2013-11-25 12:23:00,
2013-11-25 07:28:00,38.7,33.1,30.36,WNW,289,0.0,8.0,80,0.00,,,0.00,19.0,meteohub,2013-11-25 12:28:00,
2013-11-25 07:33:00,38.7,33.1,30.37,NE,45,1.0,4.0,80,0.00,,,0.00,28.0,meteohub,2013-11-25 12:33:00,
2013-11-25 07:38:00,38.7,33.1,30.37,NW,318,0.0,4.0,80,0.00,,,0.00,37.0,meteohub,2013-11-25 12:38:00,
2013-11-25 07:44:00,38.8,33.3,30.37,NE,40,3.0,4.0,80,0.00,,,0.00,44.0,meteohub,2013-11-25 12:44:00,
2013-11-25 07:49:00,39.0,33.6,30.37,NNE,26,2.0,7.0,81,0.00,,,0.00,58.0,meteohub,2013-11-25 12:49:00,
2013-11-25 07:54:00,39.6,34.2,30.37,NW,326,0.0,10.0,81,0.00,,,0.00,51.0,meteohub,2013-11-25 12:54:00,
2013-11-25 07:59:00,39.7,34.2,30.38,NNW,342,0.0,10.0,80,0.00,,,0.00,42.0,meteohub,2013-11-25 12:59:00,
2013-11-25 08:04:00,39.9,34.3,30.38,North,9,7.0,8.0,80,0.00,,,0.00,39.0,meteohub,2013-11-25 13:04:00,
2013-11-25 08:09:00,40.1,34.5,30.38,North,0,2.0,12.0,80,0.00,,,0.00,44.0,meteohub,2013-11-25 13:09:00,
2013-11-25 08:14:00,40.3,34.5,30.38,NNE,19,5.0,12.0,80,0.00,,,0.00,69.0,meteohub,2013-11-25 13:14:00,
2013-11-25 08:19:00,40.6,34.9,30.39,SSW,193,5.0,12.0,80,0.00,,,0.00,107.0,meteohub,2013-11-25 13:19:00,
2013-11-25 08:24:00,41.2,35.4,30.38,ENE,68,0.0,10.0,80,0.00,,,0.00,144.0,meteohub,2013-11-25 13:24:00,
2013-11-25 08:29:00,41.4,35.4,30.39,NNE,28,5.0,12.0,79,0.00,,,0.00,79.0,meteohub,2013-11-25 13:29:00,
2013-11-25 08:34:00,41.5,35.6,30.39,NNE,26,0.0,12.0,79,0.00,,,0.00,149.0,meteohub,2013-11-25 13:34:00,
2013-11-25 08:39:00,42.1,36.3,30.39,NNE,25,8.0,10.0,80,0.00,,,0.00,148.0,meteohub,2013-11-25 13:39:00,
2013-11-25 08:44:00,42.4,36.3,30.38,NE,45,5.0,12.0,79,0.00,,,0.00,399.0,meteohub,2013-11-25 13:44:00,
2013-11-25 08:49:00,43.2,36.7,30.39,NE,42,10.0,12.0,78,0.00,,,0.00,403.0,meteohub,2013-11-25 13:49:00,
2013-11-25 08:54:00,43.5,37.4,30.38,NNE,30,6.0,13.0,79,0.00,,,0.00,218.0,meteohub,2013-11-25 13:54:00,
2013-11-25 08:59:00,44.2,37.8,30.38,North,0,6.0,13.0,78,0.00,,,0.00,464.0,meteohub,2013-11-25 13:59:00,
2013-11-25 09:04:00,44.8,38.3,30.38,WNW,302,5.0,13.0,78,0.00,,,0.00,410.0,meteohub,2013-11-25 14:04:00,
2013-11-25 09:09:00,45.0,38.5,30.38,NE,44,7.0,13.0,78,0.00,,,0.00,258.0,meteohub,2013-11-25 14:09:00,
2013-11-25 09:14:00,45.3,39.2,30.38,NE,46,13.0,18.0,79,0.00,,,0.00,255.0,meteohub,2013-11-25 14:14:00,
2013-11-25 09:19:00,45.9,40.1,30.38,NNE,25,4.0,18.0,80,0.00,,,0.00,246.0,meteohub,2013-11-25 14:19:00,
2013-11-25 09:24:00,46.6,41.0,30.38,East,80,8.0,18.0,81,0.00,,,0.00,250.0,meteohub,2013-11-25 14:24:00,
2013-11-25 09:29:00,47.1,41.5,30.39,NE,43,4.0,15.0,81,0.00,,,0.00,255.0,meteohub,2013-11-25 14:29:00,
2013-11-25 09:34:00,47.8,42.3,30.38,NNE,18,5.0,15.0,81,0.00,,,0.00,257.0,meteohub,2013-11-25 14:34:00,
2013-11-25 09:39:00,48.0,42.4,30.38,NNE,26,6.0,15.0,81,0.00,,,0.00,274.0,meteohub,2013-11-25 14:39:00,
2013-11-25 09:44:00,48.6,42.6,30.38,ENE,61,12.0,15.0,80,0.00,,,0.00,443.0,meteohub,2013-11-25 14:44:00,
2013-11-25 09:49:00,48.9,43.0,30.38,NE,55,5.0,16.0,80,0.00,,,0.00,462.0,meteohub,2013-11-25 14:49:00,
2013-11-25 09:54:00,49.1,42.8,30.39,NNE,26,13.0,19.0,79,0.00,,,0.00,292.0,meteohub,2013-11-25 14:54:00,
2013-11-25 09:59:00,48.9,43.0,30.39,NE,52,9.0,19.0,80,0.00,,,0.00,315.0,meteohub,2013-11-25 14:59:00,
2013-11-25 10:04:00,49.3,43.7,30.39,North,11,11.0,16.0,81,0.00,,,0.00,232.0,meteohub,2013-11-25 15:04:00,
2013-11-25 10:09:00,49.3,43.7,30.38,NNE,12,6.0,20.0,81,0.00,,,0.00,455.0,meteohub,2013-11-25 15:09:00,
2013-11-25 10:14:00,49.8,44.2,30.38,NE,37,5.0,20.0,81,0.00,,,0.00,396.0,meteohub,2013-11-25 15:14:00,
2013-11-25 10:19:00,50.2,44.6,30.39,NE,53,9.0,14.0,81,0.00,,,0.00,336.0,meteohub,2013-11-25 15:19:00,
2013-11-25 10:24:00,50.0,44.4,30.39,NE,54,0.0,14.0,81,0.00,,,0.00,429.0,meteohub,2013-11-25 15:24:00,
2013-11-25 10:29:00,50.0,44.8,30.39,ENE,59,11.0,14.0,82,0.00,,,0.00,355.0,meteohub,2013-11-25 15:29:00,
2013-11-25 10:34:00,50.2,45.0,30.38,NNE,27,7.0,16.0,82,0.00,,,0.00,355.0,meteohub,2013-11-25 15:34:00,
2013-11-25 10:39:00,50.4,45.3,30.38,NE,40,9.0,16.0,83,0.00,,,0.00,278.0,meteohub,2013-11-25 15:39:00,
2013-11-25 10:44:00,50.4,45.3,30.38,NNE,31,9.0,17.0,83,0.00,,,0.00,322.0,meteohub,2013-11-25 15:44:00,
2013-11-25 10:49:00,50.5,45.3,30.38,NNE,30,8.0,17.0,82,0.00,,,0.00,306.0,meteohub,2013-11-25 15:49:00,
2013-11-25 10:54:00,50.5,45.5,30.38,NNE,29,7.0,18.0,83,0.00,,,0.00,322.0,meteohub,2013-11-25 15:54:00,
2013-11-25 10:59:00,50.7,46.0,30.38,NE,51,10.0,18.0,84,0.00,,,0.00,352.0,meteohub,2013-11-25 15:59:00,
2013-11-25 11:04:00,50.7,45.7,30.38,NNE,32,15.0,18.0,83,0.00,,,0.00,406.0,meteohub,2013-11-25 16:04:00,
2013-11-25 11:09:00,50.9,46.2,30.38,NE,51,11.0,16.0,84,0.00,,,0.00,225.0,meteohub,2013-11-25 16:09:00,
2013-11-25 11:14:00,50.9,46.2,30.37,NE,41,11.0,18.0,84,0.00,,,0.00,229.0,meteohub,2013-11-25 16:14:00,
2013-11-25 11:19:00,50.7,46.0,30.37,North,5,3.0,18.0,84,0.00,,,0.00,237.0,meteohub,2013-11-25 16:19:00,
2013-11-25 11:25:00,51.1,46.4,30.37,North,355,4.0,16.0,84,0.00,,,0.00,214.0,meteohub,2013-11-25 16:25:00,
2013-11-25 11:30:00,51.3,46.6,30.37,NE,38,5.0,16.0,84,0.00,,,0.00,211.0,meteohub,2013-11-25 16:30:00,
2013-11-25 11:35:00,51.3,46.6,30.36,North,11,9.0,16.0,84,0.00,,,0.00,186.0,meteohub,2013-11-25 16:35:00,
2013-11-25 11:40:00,51.1,46.8,30.36,NE,41,10.0,14.0,85,0.00,,,0.00,223.0,meteohub,2013-11-25 16:40:00,
2013-11-25 11:45:00,51.1,46.8,30.35,NNE,15,4.0,14.0,85,0.00,,,0.00,225.0,meteohub,2013-11-25 16:45:00,
2013-11-25 11:50:00,51.3,46.9,30.35,North,0,2.0,17.0,85,0.00,,,0.00,209.0,meteohub,2013-11-25 16:50:00,
2013-11-25 11:55:00,51.3,46.9,30.35,North,355,5.0,17.0,85,0.00,,,0.00,269.0,meteohub,2013-11-25 16:55:00,
2013-11-25 12:00:00,51.4,47.1,30.35,NNE,24,2.0,15.0,85,0.00,,,0.00,323.0,meteohub,2013-11-25 17:00:00,
2013-11-25 12:05:00,51.4,47.1,30.34,NE,42,6.0,15.0,85,0.00,,,0.00,243.0,meteohub,2013-11-25 17:05:00,
2013-11-25 12:10:00,51.4,47.1,30.34,ENE,58,8.0,17.0,85,0.00,,,0.00,158.0,meteohub,2013-11-25 17:10:00,
2013-11-25 12:15:00,51.4,47.1,30.34,NNE,30,5.0,17.0,85,0.00,,,0.00,155.0,meteohub,2013-11-25 17:15:00,
2013-11-25 12:20:00,51.4,47.1,30.34,NE,35,11.0,18.0,85,0.00,,,0.00,165.0,meteohub,2013-11-25 17:20:00,
2013-11-25 12:25:00,51.3,47.3,30.34,NE,44,11.0,18.0,86,0.00,,,0.00,169.0,meteohub,2013-11-25 17:25:00,
2013-11-25 12:30:00,51.4,47.5,30.34,NNE,25,3.0,18.0,86,0.00,,,0.00,232.0,meteohub,2013-11-25 17:30:00,
2013-11-25 12:35:00,51.4,47.5,30.33,NE,45,5.0,16.0,86,0.00,,,0.00,302.0,meteohub,2013-11-25 17:35:00,
2013-11-25 12:40:00,51.6,47.5,30.32,ENE,59,16.0,16.0,86,0.00,,,0.00,318.0,meteohub,2013-11-25 17:40:00,
2013-11-25 12:45:00,51.8,47.7,30.32,NNE,33,11.0,21.0,86,0.00,,,0.00,366.0,meteohub,2013-11-25 17:45:00,
2013-11-25 12:50:00,52.0,47.8,30.32,North,0,7.0,21.0,86,0.00,,,0.00,334.0,meteohub,2013-11-25 17:50:00,
2013-11-25 12:55:00,52.0,47.8,30.31,ENE,65,14.0,21.0,86,0.00,,,0.00,325.0,meteohub,2013-11-25 17:55:00,
2013-11-25 13:00:00,52.3,48.2,30.31,ENE,75,13.0,19.0,86,0.00,,,0.00,385.0,meteohub,2013-11-25 18:00:00,
2013-11-25 13:05:00,52.2,48.0,30.31,NNE,15,13.0,19.0,86,0.00,,,0.00,274.0,meteohub,2013-11-25 18:05:00,
2013-11-25 13:10:00,52.3,48.2,30.31,NE,34,4.0,22.0,86,0.00,,,0.00,237.0,meteohub,2013-11-25 18:10:00,
2013-11-25 13:15:00,52.9,48.7,30.31,WNW,299,3.0,22.0,86,0.00,,,0.00,257.0,meteohub,2013-11-25 18:15:00,
2013-11-25 13:20:00,53.1,48.7,30.31,NNE,30,5.0,22.0,85,0.00,,,0.00,515.0,meteohub,2013-11-25 18:20:00,
2013-11-25 13:25:00,52.9,48.6,30.31,NE,38,17.0,18.0,85,0.00,,,0.00,332.0,meteohub,2013-11-25 18:25:00,
2013-11-25 13:30:00,53.1,48.9,30.31,NE,51,6.0,18.0,86,0.00,,,0.00,272.0,meteohub,2013-11-25 18:30:00,
2013-11-25 13:35:00,52.9,48.6,30.31,NE,42,11.0,18.0,85,0.00,,,0.00,262.0,meteohub,2013-11-25 18:35:00,
2013-11-25 13:40:00,52.7,49.0,30.29,NE,53,4.0,-999.0,86,-99.99,,,0.00,323,weatherlink.com 1.10,2013-11-25 18:40:00,
2013-11-25 13:45:00,53.1,48.9,30.30,NE,38,10.0,15.0,86,0.00,,,0.00,325.0,meteohub,2013-11-25 18:45:00,
2013-11-25 13:50:00,53.2,49.1,30.30,NNE,13,6.0,19.0,86,0.00,,,0.00,255.0,meteohub,2013-11-25 18:50:00,
2013-11-25 13:55:00,53.2,48.9,30.30,NE,40,8.0,19.0,85,0.00,,,0.00,171.0,meteohub,2013-11-25 18:55:00,
2013-11-25 14:00:00,53.1,48.9,30.30,NE,46,5.0,19.0,86,0.00,,,0.00,141.0,meteohub,2013-11-25 19:00:00,
2013-11-25 14:05:00,52.9,48.7,30.30,NNE,26,5.0,17.0,86,0.00,,,0.00,213.0,meteohub,2013-11-25 19:05:00,
2013-11-25 14:10:00,53.1,49.3,30.30,NE,41,6.0,17.0,87,0.00,,,0.00,225.0,meteohub,2013-11-25 19:10:00,
2013-11-25 14:15:00,53.1,49.3,30.29,NE,53,5.0,17.0,87,0.00,,,0.00,232.0,meteohub,2013-11-25 19:15:00,
2013-11-25 14:20:00,53.2,49.5,30.29,NE,53,8.0,18.0,87,0.00,,,0.00,236.0,meteohub,2013-11-25 19:20:00,
2013-11-25 14:25:00,53.2,49.5,30.29,North,11,4.0,18.0,87,0.00,,,0.00,243.0,meteohub,2013-11-25 19:25:00,
2013-11-25 14:30:00,53.1,48.9,30.29,NNE,23,3.0,17.0,86,0.00,,,0.00,269.0,meteohub,2013-11-25 19:30:00,
2013-11-25 14:35:00,52.9,49.1,30.29,NE,42,13.0,17.0,87,0.00,,,0.00,223.0,meteohub,2013-11-25 19:35:00,
2013-11-25 14:40:00,52.5,48.7,30.29,NE,41,3.0,17.0,87,0.00,,,0.00,97.0,meteohub,2013-11-25 19:40:00,
2013-11-25 14:45:00,52.5,49.1,30.29,NNE,17,2.0,15.0,88,0.00,,,0.00,62.0,meteohub,2013-11-25 19:45:00,
2013-11-25 14:50:00,52.3,48.9,30.29,NNE,27,5.0,15.0,88,0.00,,,0.00,53.0,meteohub,2013-11-25 19:50:00,
2013-11-25 14:55:00,52.3,49.3,30.29,NE,46,5.0,13.0,89,0.00,,,0.00,60.0,meteohub,2013-11-25 19:55:00,
2013-11-25 15:00:00,52.3,49.3,30.29,NE,34,7.0,12.0,89,0.00,,,0.00,77.0,meteohub,2013-11-25 20:00:00,
2013-11-25 15:05:00,52.2,49.1,30.28,NE,41,3.0,15.0,89,0.00,,,0.00,81.0,meteohub,2013-11-25 20:05:00,
2013-11-25 15:10:00,52.3,49.5,30.28,NE,49,8.0,15.0,90,0.00,,,0.00,81.0,meteohub,2013-11-25 20:10:00,
2013-11-25 15:15:00,52.3,49.5,30.28,NE,36,8.0,13.0,90,0.00,,,0.00,105.0,meteohub,2013-11-25 20:15:00,
2013-11-25 15:20:00,52.3,49.5,30.28,NNW,347,0.0,13.0,90,0.00,,,0.00,95.0,meteohub,2013-11-25 20:20:00,
2013-11-25 15:25:00,52.3,49.5,30.28,NNE,25,2.0,13.0,90,0.00,,,0.00,79.0,meteohub,2013-11-25 20:25:00,
2013-11-25 15:30:00,52.3,49.5,30.28,NNW,345,0.0,12.0,90,0.00,,,0.00,76.0,meteohub,2013-11-25 20:30:00,
2013-11-25 15:35:00,52.5,49.6,30.27,NNE,12,4.0,12.0,90,0.00,,,0.00,74.0,meteohub,2013-11-25 20:35:00,
2013-11-25 15:40:00,52.5,49.6,30.27,NNW,327,3.0,12.0,90,0.00,,,0.00,116.0,meteohub,2013-11-25 20:40:00,
2013-11-25 15:45:00,52.5,49.6,30.27,NE,47,1.0,12.0,90,0.00,,,0.00,144.0,meteohub,2013-11-25 20:45:00,
2013-11-25 15:50:00,52.5,50.0,30.27,North,5,1.0,12.0,91,0.00,,,0.00,200.0,meteohub,2013-11-25 20:50:00,
2013-11-25 15:55:00,52.9,50.4,30.27,North,5,2.0,12.0,91,0.00,,,0.00,158.0,meteohub,2013-11-25 20:55:00,
2013-11-25 16:00:00,53.1,50.5,30.27,NE,45,10.0,13.0,91,0.00,,,0.00,102.0,meteohub,2013-11-25 21:00:00,
2013-11-25 16:05:00,53.1,50.5,30.26,NE,45,4.0,13.0,91,0.00,,,0.00,141.0,meteohub,2013-11-25 21:05:00,
2013-11-25 16:10:00,53.2,50.7,30.27,NE,38,4.0,13.0,91,0.00,,,0.00,179.0,meteohub,2013-11-25 21:10:00,
2013-11-25 16:15:00,53.4,51.1,30.26,ENE,65,10.0,16.0,92,0.00,,,0.00,40.0,meteohub,2013-11-25 21:15:00,
2013-11-25 16:20:00,53.2,50.7,30.26,NNE,21,8.0,16.0,91,0.00,,,0.00,40.0,meteohub,2013-11-25 21:20:00,
2013-11-25 16:25:00,53.2,50.9,30.27,NNE,32,5.0,12.0,92,0.00,,,0.00,60.0,meteohub,2013-11-25 21:25:00,
2013-11-25 16:30:00,53.1,50.7,30.26,NNE,22,10.0,11.0,92,0.00,,,0.00,39.0,meteohub,2013-11-25 21:30:00,
2013-11-25 16:36:00,53.1,50.7,30.26,NE,48,11.0,16.0,92,0.00,,,0.00,63.0,meteohub,2013-11-25 21:36:00,
2013-11-25 16:41:00,53.1,50.7,30.26,NNE,28,15.0,17.0,92,0.00,,,0.00,26.0,meteohub,2013-11-25 21:41:00,
2013-11-25 16:46:00,53.2,50.9,30.26,NNE,32,5.0,17.0,92,0.00,,,0.00,30.0,meteohub,2013-11-25 21:46:00,
2013-11-25 16:51:00,53.2,50.9,30.26,NE,37,13.0,18.0,92,0.00,,,0.00,18.0,meteohub,2013-11-25 21:51:00,
2013-11-25 16:56:00,53.2,50.9,30.27,NE,43,7.0,18.0,92,0.00,,,0.00,0.0,meteohub,2013-11-25 21:56:00,
2013-11-25 17:01:00,53.1,50.7,30.27,NE,42,6.0,18.0,92,0.00,,,0.00,0.0,meteohub,2013-11-25 22:01:00,
2013-11-25 17:06:00,53.1,50.7,30.27,NE,37,11.0,17.0,92,0.00,,,0.00,0.0,meteohub,2013-11-25 22:06:00,
2013-11-25 17:11:00,53.2,50.9,30.27,NNE,28,5.0,14.0,92,0.00,,,0.00,0.0,meteohub,2013-11-25 22:11:00,
2013-11-25 17:16:00,53.2,50.9,30.27,NNE,17,4.0,14.0,92,0.00,,,0.00,0.0,meteohub,2013-11-25 22:16:00,
2013-11-25 17:21:00,53.2,50.9,30.27,ENE,69,5.0,14.0,92,0.00,,,0.00,0.0,meteohub,2013-11-25 22:21:00,
2013-11-25 17:26:00,53.2,50.9,30.26,NE,48,8.0,13.0,92,0.00,,,0.00,0.0,meteohub,2013-11-25 22:26:00,
2013-11-25 17:31:00,53.1,50.7,30.26,NE,40,18.0,18.0,92,0.00,,,0.00,0.0,meteohub,2013-11-25 22:31:00,
2013-11-25 17:36:00,53.1,50.7,30.26,North,5,6.0,18.0,92,0.00,,,0.00,0.0,meteohub,2013-11-25 22:36:00,
2013-11-25 17:41:00,52.9,50.5,30.26,NNE,26,3.0,18.0,92,0.00,,,0.00,0.0,meteohub,2013-11-25 22:41:00,
2013-11-25 17:46:00,52.9,50.5,30.26,NNE,28,2.0,18.0,92,0.00,,,0.00,0.0,meteohub,2013-11-25 22:46:00,
2013-11-25 17:51:00,52.9,50.5,30.26,NE,41,12.0,15.0,92,0.00,,,0.00,0.0,meteohub,2013-11-25 22:51:00,
2013-11-25 17:56:00,52.7,50.4,30.26,North,5,5.0,15.0,92,0.00,,,0.00,0.0,meteohub,2013-11-25 22:56:00,
2013-11-25 18:01:00,52.9,50.5,30.25,NE,51,6.0,15.0,92,0.00,,,0.00,0.0,meteohub,2013-11-25 23:01:00,
2013-11-25 18:06:00,52.9,50.5,30.26,NE,49,7.0,13.0,92,0.00,,,0.00,0.0,meteohub,2013-11-25 23:06:00,
2013-11-25 18:11:00,52.9,50.5,30.26,North,0,4.0,13.0,92,0.00,,,0.00,0.0,meteohub,2013-11-25 23:11:00,
2013-11-25 18:16:00,52.9,50.5,30.26,NNE,28,12.0,18.0,92,0.00,,,0.00,0.0,meteohub,2013-11-25 23:16:00,
2013-11-25 18:21:00,52.9,50.9,30.26,NE,34,1.0,18.0,93,0.00,,,0.00,0.0,meteohub,2013-11-25 23:21:00,
2013-11-25 18:26:00,52.9,50.5,30.26,NE,36,5.0,18.0,92,0.00,,,0.00,0.0,meteohub,2013-11-25 23:26:00,
2013-11-25 18:31:00,52.7,50.4,30.26,NE,46,9.0,17.0,92,0.00,,,0.00,0.0,meteohub,2013-11-25 23:31:00,
2013-11-25 18:36:00,52.9,50.5,30.27,NE,35,10.0,15.0,92,0.00,,,0.00,0.0,meteohub,2013-11-25 23:36:00,
2013-11-25 18:41:00,52.9,50.5,30.27,NE,53,5.0,16.0,92,0.00,,,0.00,0.0,meteohub,2013-11-25 23:41:00,
2013-11-25 18:46:00,52.9,50.5,30.26,NNE,26,5.0,16.0,92,0.00,,,0.00,0.0,meteohub,2013-11-25 23:46:00,
2013-11-25 18:51:00,52.7,50.4,30.27,North,0,6.0,16.0,92,0.00,,,0.00,0.0,meteohub,2013-11-25 23:51:00,
2013-11-25 18:56:00,52.5,50.2,30.26,NNW,329,3.0,13.0,92,0.00,,,0.00,0.0,meteohub,2013-11-25 23:56:00,
2013-11-25 19:01:00,52.5,50.5,30.26,NE,48,7.0,13.0,93,0.00,,,0.00,0.0,meteohub,2013-11-26 00:01:00,
2013-11-25 19:06:00,52.5,50.5,30.27,NE,44,5.0,13.0,93,0.00,,,0.00,0.0,meteohub,2013-11-26 00:06:00,
2013-11-25 19:11:00,52.5,50.5,30.27,North,0,3.0,13.0,93,0.00,,,0.00,0.0,meteohub,2013-11-26 00:11:00,
2013-11-25 19:16:00,52.3,50.4,30.26,NE,49,4.0,13.0,93,0.00,,,0.00,0.0,meteohub,2013-11-26 00:16:00,
2013-11-25 19:21:00,52.3,50.4,30.26,NNE,15,4.0,13.0,93,0.00,,,0.00,0.0,meteohub,2013-11-26 00:21:00,
2013-11-25 19:26:00,52.3,50.4,30.26,ENE,77,2.0,13.0,93,0.00,,,0.00,0.0,meteohub,2013-11-26 00:26:00,
2013-11-25 19:31:00,52.2,50.2,30.25,NE,38,4.0,13.0,93,0.00,,,0.00,0.0,meteohub,2013-11-26 00:31:00,
2013-11-25 19:36:00,52.2,50.2,30.25,NNE,13,7.0,15.0,93,0.00,,,0.00,0.0,meteohub,2013-11-26 00:36:00,
2013-11-25 19:41:00,52.2,50.2,30.25,NE,55,5.0,16.0,93,0.00,,,0.00,0.0,meteohub,2013-11-26 00:41:00,
2013-11-25 19:46:00,52.0,50.0,30.24,NNE,18,9.0,16.0,93,0.00,,,0.00,0.0,meteohub,2013-11-26 00:46:00,
2013-11-25 19:51:00,52.0,50.0,30.24,NE,49,4.0,14.0,93,0.00,,,0.00,0.0,meteohub,2013-11-26 00:51:00,
2013-11-25 19:56:00,52.0,50.0,30.24,NE,45,4.0,14.0,93,0.00,,,0.00,0.0,meteohub,2013-11-26 00:56:00,
2013-11-25 20:01:00,51.8,49.8,30.24,NNE,25,7.0,14.0,93,0.00,,,0.00,0.0,meteohub,2013-11-26 01:01:00,
2013-11-25 20:06:00,51.8,49.8,30.24,NNE,16,5.0,12.0,93,0.00,,,0.00,0.0,meteohub,2013-11-26 01:06:00,
2013-11-25 20:11:00,51.6,49.6,30.24,NNE,17,2.0,12.0,93,0.00,,,0.00,0.0,meteohub,2013-11-26 01:11:00,
2013-11-25 20:16:00,51.4,49.5,30.23,NE,38,1.0,13.0,93,0.00,,,0.00,0.0,meteohub,2013-11-26 01:16:00,
2013-11-25 20:21:00,51.4,49.5,30.23,ENE,69,3.0,13.0,93,0.00,,,0.00,0.0,meteohub,2013-11-26 01:21:00,
2013-11-25 20:26:00,51.4,49.5,30.23,NNE,24,5.0,11.0,93,0.00,,,0.00,0.0,meteohub,2013-11-26 01:26:00,
2013-11-25 20:31:00,51.4,49.5,30.23,NNE,24,4.0,11.0,93,0.00,,,0.00,0.0,meteohub,2013-11-26 01:31:00,
2013-11-25 20:36:00,51.3,49.3,30.23,NNE,33,3.0,8.0,93,0.00,,,0.00,0.0,meteohub,2013-11-26 01:36:00,
2013-11-25 20:41:00,51.3,49.3,30.23,North,11,0.0,9.0,93,0.00,,,0.00,0.0,meteohub,2013-11-26 01:41:00,
2013-11-25 20:46:00,51.3,49.3,30.22,NE,37,3.0,9.0,93,0.00,,,0.00,0.0,meteohub,2013-11-26 01:46:00,
2013-11-25 20:51:00,51.1,49.1,30.23,NE,39,4.0,9.0,93,0.00,,,0.00,0.0,meteohub,2013-11-26 01:51:00,
2013-11-25 20:56:00,51.1,49.1,30.23,NNE,22,6.0,10.0,93,0.00,,,0.00,0.0,meteohub,2013-11-26 01:56:00,
2013-11-25 21:01:00,50.9,49.3,30.23,NNE,20,6.0,10.0,94,0.00,,,0.00,0.0,meteohub,2013-11-26 02:01:00,
2013-11-25 21:06:00,50.9,49.3,30.22,NNE,33,9.0,10.0,94,0.00,,,0.00,0.0,meteohub,2013-11-26 02:06:00,
2013-11-25 21:11:00,50.7,49.1,30.22,North,10,2.0,9.0,94,0.00,,,0.00,0.0,meteohub,2013-11-26 02:11:00,
2013-11-25 21:16:00,50.7,49.1,30.21,NNE,19,1.0,9.0,94,0.00,,,0.00,0.0,meteohub,2013-11-26 02:16:00,
2013-11-25 21:21:00,50.7,49.1,30.21,NE,35,4.0,10.0,94,0.00,,,0.00,0.0,meteohub,2013-11-26 02:21:00,
2013-11-25 21:26:00,50.7,49.1,30.21,NE,45,5.0,10.0,94,0.00,,,0.00,0.0,meteohub,2013-11-26 02:26:00,
2013-11-25 21:31:00,50.7,49.1,30.22,NNE,31,3.0,10.0,94,0.00,,,0.00,0.0,meteohub,2013-11-26 02:31:00,
2013-11-25 21:36:00,50.5,48.9,30.21,NE,45,5.0,7.0,94,0.00,,,0.00,0.0,meteohub,2013-11-26 02:36:00,
2013-11-25 21:41:00,50.5,48.9,30.21,NE,38,2.0,7.0,94,0.00,,,0.00,0.0,meteohub,2013-11-26 02:41:00,
2013-11-25 21:46:00,50.5,48.9,30.21,NE,46,5.0,8.0,94,0.00,,,0.00,0.0,meteohub,2013-11-26 02:46:00,
2013-11-25 21:51:00,50.7,49.1,30.21,NE,34,5.0,8.0,94,0.00,,,0.00,0.0,meteohub,2013-11-26 02:51:00,
2013-11-25 21:56:00,50.7,49.1,30.21,NE,41,2.0,8.0,94,0.00,,,0.00,0.0,meteohub,2013-11-26 02:56:00,
2013-11-25 22:01:00,50.7,49.1,30.21,NE,37,2.0,8.0,94,0.00,,,0.00,0.0,meteohub,2013-11-26 03:01:00,
2013-11-25 22:06:00,50.7,49.1,30.21,NE,34,2.0,6.0,94,0.00,,,0.00,0.0,meteohub,2013-11-26 03:06:00,
2013-11-25 22:11:00,50.7,49.1,30.20,NE,38,3.0,7.0,94,0.00,,,0.00,0.0,meteohub,2013-11-26 03:11:00,
2013-11-25 22:16:00,50.7,49.1,30.19,NE,46,4.0,8.0,94,0.00,,,0.00,0.0,meteohub,2013-11-26 03:16:00,
2013-11-25 22:21:00,50.5,48.9,30.20,NE,38,3.0,8.0,94,0.00,,,0.00,0.0,meteohub,2013-11-26 03:21:00,
2013-11-25 22:26:00,50.5,48.9,30.19,NNE,32,0.0,8.0,94,0.00,,,0.00,0.0,meteohub,2013-11-26 03:26:00,
2013-11-25 22:31:00,50.5,48.9,30.19,NE,44,4.0,6.0,94,0.00,,,0.00,0.0,meteohub,2013-11-26 03:31:00,
2013-11-25 22:36:00,50.5,48.9,30.18,NNE,31,0.0,8.0,94,0.00,,,0.00,0.0,meteohub,2013-11-26 03:36:00,
2013-11-25 22:41:00,50.5,48.9,30.18,NNE,21,0.0,8.0,94,0.00,,,0.00,0.0,meteohub,2013-11-26 03:41:00,
2013-11-25 22:46:00,50.5,48.9,30.18,NNE,12,2.0,6.0,94,0.00,,,0.00,0.0,meteohub,2013-11-26 03:46:00,
2013-11-25 22:51:00,50.5,48.9,30.17,NE,43,4.0,5.0,94,0.00,,,0.00,0.0,meteohub,2013-11-26 03:51:00,
2013-11-25 22:56:00,50.5,48.9,30.17,NE,42,1.0,7.0,94,0.00,,,0.00,0.0,meteohub,2013-11-26 03:56:00,
2013-11-25 23:01:00,50.4,48.7,30.17,NNE,24,0.0,7.0,94,0.00,,,0.00,0.0,meteohub,2013-11-26 04:01:00,
2013-11-25 23:06:00,50.4,48.7,30.16,North,350,0.0,7.0,94,0.00,,,0.00,0.0,meteohub,2013-11-26 04:06:00,
2013-11-25 23:11:00,50.4,48.7,30.15,NNE,23,3.0,6.0,94,0.00,,,0.00,0.0,meteohub,2013-11-26 04:11:00,
2013-11-25 23:16:00,50.5,49.1,30.15,ENE,57,3.0,6.0,95,0.00,,,0.00,0.0,meteohub,2013-11-26 04:16:00,
2013-11-25 23:21:00,50.5,49.1,30.14,NE,37,0.0,6.0,95,0.00,,,0.00,0.0,meteohub,2013-11-26 04:21:00,
2013-11-25 23:26:00,50.5,49.1,30.14,NNW,347,1.0,7.0,95,0.00,,,0.00,0.0,meteohub,2013-11-26 04:26:00,
2013-11-25 23:31:00,50.5,49.1,30.14,NE,42,2.0,7.0,95,0.00,,,0.00,0.0,meteohub,2013-11-26 04:31:00,
2013-11-25 23:36:00,50.5,49.1,30.14,NNW,341,0.0,9.0,95,0.00,,,0.00,0.0,meteohub,2013-11-26 04:36:00,
2013-11-25 23:41:00,50.5,49.1,30.15,NNE,28,0.0,9.0,95,0.00,,,0.00,0.0,meteohub,2013-11-26 04:41:00,
2013-11-25 23:46:00,50.5,49.1,30.15,NE,42,0.0,9.0,95,0.00,,,0.00,0.0,meteohub,2013-11-26 04:46:00,
2013-11-25 23:51:00,50.5,49.1,30.15,NE,44,0.0,6.0,95,0.00,,,0.00,0.0,meteohub,2013-11-26 04:51:00,
2013-11-25 23:56:00,50.5,49.1,30.14,NE,44,0.0,6.0,95,0.00,,,0.00,0.0,meteohub,2013-11-26 04:56:00,